Terminal Aerodrome Forecast
Issued by NWS

Home | Current Version | Previous Version | Text Only | Print | Product List | Glossary Off
Versions: 1 2 3 4 5 6 7 8 9 10 11 12 13 14 15 16 17 18 19 20 21 22

000
FTUS43 KMPX 250500
TAFRWF
TAF
KRWF 250531Z 2506/2606 31013G22KT P6SM SKC
     FM250900 29008KT P6SM FEW050
     FM251600 24006KT P6SM BKN035
     FM260000 14005KT P6SM SCT020 OVC080=

USA.gov is the U.S. government's official web portal to all federal, state and local government web resources and services.